createdAt,value
2022-09-17T00:00:02.023Z,101039.84
2022-09-17T00:00:41.171Z,101035.56
2022-09-17T00:01:19.197Z,101034.53
2022-09-17T00:01:52.604Z,101031.66
2022-09-17T00:02:25.517Z,101037.38
2022-09-17T00:02:57.164Z,101035.75
2022-09-17T00:03:29.225Z,101039.03
2022-09-17T00:04:04.390Z,101036.56
2022-09-17T00:04:36.225Z,101033.28
2022-09-17T00:05:08.013Z,101029.19
2022-09-17T00:05:39.563Z,101028.78
2022-09-17T00:06:12.581Z,101025.09
2022-09-17T00:06:44.146Z,101029.78
2022-09-17T00:07:15.964Z,101039.81
2022-09-17T00:07:47.483Z,101032.47
2022-09-17T00:08:18.996Z,101035.91
2022-09-17T00:08:51.146Z,101030.81
2022-09-17T00:09:22.947Z,101035.31
2022-09-17T00:09:54.453Z,101029.78
2022-09-17T00:10:26.001Z,101033.47
2022-09-17T00:10:57.951Z,101037.38
2022-09-17T00:11:32.022Z,101037.38
2022-09-17T00:12:03.940Z,101043.53
2022-09-17T00:12:35.478Z,101041.88
2022-09-17T00:13:07.735Z,101039.00
2022-09-17T00:13:39.692Z,101046.16
2022-09-17T00:14:16.342Z,101052.09
2022-09-17T00:14:48.024Z,101052.94
2022-09-17T00:15:19.737Z,101050.06
2022-09-17T00:15:52.546Z,101058.66
2022-09-17T00:16:33.719Z,101051.72
2022-09-17T00:17:05.296Z,101048.41
2022-09-17T00:17:36.825Z,101052.72
2022-09-17T00:18:08.624Z,101056.63
2022-09-17T00:18:41.874Z,101053.53
2022-09-17T00:19:16.658Z,101052.53
2022-09-17T00:19:49.853Z,101052.53
2022-09-17T00:20:21.869Z,101059.25
2022-09-17T00:20:54.414Z,101057.44
2022-09-17T00:21:26.878Z,101048.03
2022-09-17T00:21:58.395Z,101052.09
2022-09-17T00:22:29.904Z,101062.34
2022-09-17T00:23:01.385Z,101054.78
2022-09-17T00:23:33.212Z,101055.78
2022-09-17T00:24:06.024Z,101051.28
2022-09-17T00:24:37.504Z,101053.31
2022-09-17T00:25:09.126Z,101055.38
2022-09-17T00:25:45.247Z,101058.66
2022-09-17T00:26:16.790Z,101050.25
2022-09-17T00:26:49.415Z,101046.78
2022-09-17T00:27:21.083Z,101045.34
2022-09-17T00:27:53.178Z,101049.22
2022-09-17T00:28:25.031Z,101046.75
2022-09-17T00:28:57.922Z,101043.47
2022-09-17T00:29:29.467Z,101050.03
2022-09-17T00:30:00.955Z,101052.09
2022-09-17T00:30:32.496Z,101050.03
2022-09-17T00:31:08.846Z,101051.69
2022-09-17T00:31:40.861Z,101049.22
2022-09-17T00:32:12.719Z,101055.56
2022-09-17T00:32:44.294Z,101046.16
2022-09-17T00:33:17.924Z,101043.50
2022-09-17T00:33:49.460Z,101052.28
2022-09-17T00:34:20.953Z,101046.75
2022-09-17T00:34:52.784Z,101048.19
2022-09-17T00:35:25.677Z,101047.78
2022-09-17T00:36:01.401Z,101058.22
2022-09-17T00:36:35.988Z,101048.00
2022-09-17T00:37:07.557Z,101047.59
2022-09-17T00:37:39.074Z,101050.06
2022-09-17T00:38:11.229Z,101054.34
2022-09-17T00:38:43.439Z,101050.88
2022-09-17T00:39:16.253Z,101055.19
2022-09-17T00:39:47.766Z,101060.50
2022-09-17T00:40:20.656Z,101054.97
2022-09-17T00:40:52.533Z,101055.19
2022-09-17T00:41:26.154Z,101057.84
2022-09-17T00:41:57.653Z,101057.44
2022-09-17T00:42:29.239Z,101050.88
2022-09-17T00:43:01.005Z,101045.94
2022-09-17T00:43:34.967Z,101056.19
2022-09-17T00:44:40.230Z,101050.84
2022-09-17T00:45:12.414Z,101059.88
2022-09-17T00:45:44.312Z,101057.63
2022-09-17T00:46:34.925Z,101058.41
2022-09-17T00:47:30.152Z,101058.41
2022-09-17T00:48:03.917Z,101059.88
2022-09-17T00:48:35.438Z,101061.50
2022-09-17T00:49:19.233Z,101058.22
2022-09-17T00:49:54.340Z,101067.25
2022-09-17T00:50:30.363Z,101059.47
2022-09-17T00:51:02.215Z,101058.66
2022-09-17T00:51:37.037Z,101061.31
2022-09-17T00:52:12.657Z,101053.72
2022-09-17T00:52:48.258Z,101063.97
2022-09-17T00:53:21.434Z,101059.47
2022-09-17T00:53:52.984Z,101063.97
2022-09-17T00:54:24.773Z,101066.03
2022-09-17T00:55:13.985Z,101063.16
2022-09-17T00:55:59.373Z,101058.22
2022-09-17T00:56:33.278Z,101065.81
2022-09-17T00:57:04.869Z,101066.22
2022-09-17T00:57:36.655Z,101074.00
2022-09-17T00:58:10.280Z,101064.81
2022-09-17T00:58:42.112Z,101073.78
2022-09-17T00:59:15.088Z,101070.50
2022-09-17T00:59:46.727Z,101067.22
2022-09-17T01:00:19.240Z,101075.44
2022-09-17T01:00:50.792Z,101076.25
2022-09-17T01:01:22.625Z,101074.22
2022-09-17T01:01:54.459Z,101067.25
2022-09-17T01:02:26.201Z,101075.03
2022-09-17T01:02:58.538Z,101079.13
2022-09-17T01:03:30.144Z,101078.72
2022-09-17T01:04:01.968Z,101084.44
2022-09-17T01:04:33.650Z,101086.91
2022-09-17T01:05:06.496Z,101079.94
2022-09-17T01:05:45.855Z,101077.50
2022-09-17T01:06:20.374Z,101079.94
2022-09-17T01:07:16.042Z,101086.06
2022-09-17T01:07:57.765Z,101086.06
2022-09-17T01:08:44.834Z,101083.81
2022-09-17T01:09:40.856Z,101075.84
2022-09-17T01:10:24.572Z,101066.03
2022-09-17T01:11:15.709Z,101075.22
2022-09-17T01:12:04.228Z,101071.34
2022-09-17T01:12:43.839Z,101071.75
2022-09-17T01:13:26.061Z,101075.84
2022-09-17T01:14:25.911Z,101077.06
2022-09-17T01:15:10.834Z,101085.66
2022-09-17T01:15:42.574Z,101075.63
2022-09-17T01:16:20.924Z,101068.50
2022-09-17T01:17:10.763Z,101066.81
2022-09-17T01:18:21.806Z,101070.91
2022-09-17T01:19:25.699Z,101072.34
2022-09-17T01:20:21.752Z,101064.59
2022-09-17T01:21:13.199Z,101068.88
2022-09-17T01:21:58.066Z,101071.56
2022-09-17T01:22:54.465Z,101079.50
2022-09-17T01:24:03.025Z,101075.66
2022-09-17T01:24:55.006Z,101077.28
2022-09-17T01:25:47.203Z,101079.91
2022-09-17T01:26:30.634Z,101078.50
2022-09-17T01:27:26.710Z,101085.25
2022-09-17T01:28:19.725Z,101083.84
2022-09-17T01:28:53.651Z,101080.75
2022-09-17T01:29:46.959Z,101080.34
2022-09-17T01:30:59.575Z,101081.97
2022-09-17T01:31:42.505Z,101078.91
2022-09-17T01:32:47.584Z,101085.66
2022-09-17T01:33:23.656Z,101080.53
2022-09-17T01:34:24.381Z,101078.69
2022-09-17T01:35:05.322Z,101080.97
2022-09-17T01:35:39.678Z,101082.81
2022-09-17T01:36:21.096Z,101084.81
2022-09-17T01:37:02.457Z,101075.03
2022-09-17T01:37:37.746Z,101082.00
2022-09-17T01:38:12.143Z,101084.66
2022-09-17T01:38:49.761Z,101082.78
2022-09-17T01:39:32.064Z,101084.63
2022-09-17T01:40:06.364Z,101084.00
2022-09-17T01:41:02.996Z,101088.09
2022-09-17T01:41:43.003Z,101077.88
2022-09-17T01:42:24.177Z,101081.97
2022-09-17T01:43:17.897Z,101076.44
2022-09-17T01:44:03.613Z,101073.38
2022-09-17T01:44:49.715Z,101079.09
2022-09-17T01:45:33.291Z,101068.88
2022-09-17T01:46:37.032Z,101074.97
2022-09-17T01:47:20.710Z,101078.44
2022-09-17T01:47:57.026Z,101079.66
2022-09-17T01:48:38.613Z,101080.69
2022-09-17T01:49:11.486Z,101081.50
2022-09-17T01:49:43.412Z,101082.75
2022-09-17T01:50:20.394Z,101084.38
2022-09-17T01:50:56.097Z,101081.94
2022-09-17T01:51:30.845Z,101087.25
2022-09-17T01:52:03.033Z,101086.19
2022-09-17T01:52:36.253Z,101088.03
2022-09-17T01:53:09.242Z,101094.19
2022-09-17T01:53:54.164Z,101087.63
2022-09-17T01:54:28.901Z,101084.78
2022-09-17T01:55:04.763Z,101093.75
2022-09-17T01:55:39.004Z,101095.19
2022-09-17T01:56:14.390Z,101094.19
2022-09-17T01:56:59.016Z,101099.69
2022-09-17T01:57:36.800Z,101103.59
2022-09-17T01:58:11.207Z,101099.28
2022-09-17T01:58:47.263Z,101096.44
2022-09-17T01:59:23.000Z,101096.22
2022-09-17T02:00:03.197Z,101103.59
2022-09-17T02:00:48.515Z,101105.41
2022-09-17T02:01:22.229Z,101098.47
2022-09-17T02:02:15.372Z,101099.91
2022-09-17T02:03:13.280Z,101100.31
2022-09-17T02:03:50.875Z,101094.78
2022-09-17T02:04:30.608Z,101099.91
2022-09-17T02:05:11.735Z,101092.75
2022-09-17T02:05:50.333Z,101095.19
2022-09-17T02:06:27.173Z,101096.63
2022-09-17T02:07:04.099Z,101097.66
2022-09-17T02:07:44.573Z,101096.22
2022-09-17T02:08:17.315Z,101101.94
2022-09-17T02:08:56.829Z,101094.59
2022-09-17T02:09:34.052Z,101102.34
2022-09-17T02:10:10.223Z,101098.28
2022-09-17T02:10:45.667Z,101107.25
2022-09-17T02:11:17.508Z,101099.09
2022-09-17T02:11:56.238Z,101107.47
2022-09-17T02:12:31.798Z,101110.53
2022-09-17T02:13:09.400Z,101092.53
2022-09-17T02:13:46.483Z,101101.13
2022-09-17T02:14:24.982Z,101094.38
2022-09-17T02:14:59.192Z,101103.97
2022-09-17T02:15:33.660Z,101108.47
2022-09-17T02:16:13.552Z,101115.84
2022-09-17T02:16:50.414Z,101105.63
2022-09-17T02:18:03.301Z,101102.56
2022-09-17T02:18:41.255Z,101099.91
2022-09-17T02:19:16.736Z,101091.31
2022-09-17T02:19:48.408Z,101091.31
2022-09-17T02:20:25.189Z,101092.13
2022-09-17T02:21:12.069Z,101090.09
2022-09-17T02:22:03.731Z,101099.28
2022-09-17T02:22:42.243Z,101097.44
2022-09-17T02:23:27.797Z,101098.28
2022-09-17T02:24:11.087Z,101106.03
2022-09-17T02:25:19.809Z,101105.63
2022-09-17T02:26:00.907Z,101110.53
2022-09-17T02:26:32.971Z,101102.38
2022-09-17T02:27:08.238Z,101101.75
2022-09-17T02:27:47.924Z,101098.06
2022-09-17T02:28:28.012Z,101098.28
2022-09-17T02:29:05.614Z,101100.72
2022-09-17T02:29:39.393Z,101096.22
2022-09-17T02:30:11.084Z,101098.66
2022-09-17T02:30:42.957Z,101100.09
2022-09-17T02:31:14.606Z,101096.00
2022-09-17T02:31:46.334Z,101096.81
2022-09-17T02:32:17.947Z,101100.69
2022-09-17T02:32:49.852Z,101099.44
2022-09-17T02:33:21.815Z,101100.69
2022-09-17T02:33:57.413Z,101102.72
2022-09-17T02:34:29.576Z,101107.66
2022-09-17T02:35:01.080Z,101105.00
2022-09-17T02:35:33.325Z,101098.81
2022-09-17T02:36:05.419Z,101091.88
2022-09-17T02:36:37.103Z,101091.88
2022-09-17T02:37:08.822Z,101094.94
2022-09-17T02:37:44.554Z,101099.41
2022-09-17T02:38:26.039Z,101096.56
2022-09-17T02:39:01.945Z,101096.16
2022-09-17T02:39:33.607Z,101101.47
2022-09-17T02:40:06.669Z,101104.13
2022-09-17T02:40:50.342Z,101094.53
2022-09-17T02:41:25.596Z,101092.09
2022-09-17T02:42:27.849Z,101089.44
2022-09-17T02:43:20.518Z,101093.31
2022-09-17T02:44:01.305Z,101085.72
2022-09-17T02:44:54.899Z,101098.59
2022-09-17T02:46:03.567Z,101093.88
2022-09-17T02:46:49.866Z,101091.66
2022-09-17T02:47:40.333Z,101102.06
2022-09-17T02:48:14.613Z,101102.69
2022-09-17T02:49:01.546Z,101102.69
2022-09-17T02:49:51.371Z,101113.75
2022-09-17T02:50:28.975Z,101101.47
2022-09-17T02:51:09.280Z,101109.66
2022-09-17T02:52:07.451Z,101117.81
2022-09-17T02:53:01.010Z,101116.19
2022-09-17T02:54:10.153Z,101109.22
2022-09-17T02:54:56.394Z,101111.47
2022-09-17T02:55:51.176Z,101114.41
2022-09-17T02:56:58.519Z,101118.72
2022-09-17T02:57:37.103Z,101116.47
2022-09-17T02:58:17.703Z,101113.81
2022-09-17T02:59:02.371Z,101119.13
2022-09-17T02:59:52.290Z,101119.56
2022-09-17T03:00:24.740Z,101115.91
2022-09-17T03:00:58.275Z,101116.13
2022-09-17T03:01:35.097Z,101115.50
2022-09-17T03:02:23.396Z,101115.09
2022-09-17T03:03:09.800Z,101112.84
2022-09-17T03:03:43.701Z,101118.78
2022-09-17T03:04:17.300Z,101123.88
2022-09-17T03:04:49.927Z,101117.13
2022-09-17T03:05:22.531Z,101121.22
2022-09-17T03:05:54.776Z,101123.69
2022-09-17T03:06:26.272Z,101123.28
2022-09-17T03:06:59.577Z,101117.97
2022-09-17T03:07:32.641Z,101121.44
2022-09-17T03:08:04.427Z,101122.06
2022-09-17T03:08:40.129Z,101118.38
2022-09-17T03:09:11.634Z,101115.91
2022-09-17T03:09:43.583Z,101119.41
2022-09-17T03:10:16.086Z,101111.41
2022-09-17T03:10:50.374Z,101123.50
2022-09-17T03:11:21.952Z,101122.88
2022-09-17T03:11:53.440Z,101113.06
2022-09-17T03:12:25.724Z,101121.66
2022-09-17T03:12:57.245Z,101119.19
2022-09-17T03:13:28.793Z,101120.63
2022-09-17T03:14:00.428Z,101124.91
2022-09-17T03:14:32.194Z,101116.34
2022-09-17T03:15:04.722Z,101118.16
2022-09-17T03:15:36.273Z,101114.09
2022-09-17T03:16:08.213Z,101118.16
2022-09-17T03:16:39.841Z,101115.91
2022-09-17T03:17:11.927Z,101120.03
2022-09-17T03:17:43.395Z,101102.81
2022-09-17T03:18:15.347Z,101116.13
2022-09-17T03:18:46.818Z,101115.91
2022-09-17T03:19:18.517Z,101115.09
2022-09-17T03:19:50.009Z,101105.31
2022-09-17T03:20:21.523Z,101104.69
2022-09-17T03:20:53.040Z,101112.66
2022-09-17T03:21:24.561Z,101106.09
2022-09-17T03:21:56.161Z,101109.78
2022-09-17T03:22:27.803Z,101104.47
2022-09-17T03:22:59.509Z,101103.25
2022-09-17T03:23:31.062Z,101111.41
2022-09-17T03:24:02.721Z,101110.19
2022-09-17T03:24:34.250Z,101111.63
2022-09-17T03:25:06.050Z,101105.28
2022-09-17T03:25:37.540Z,101111.81
2022-09-17T03:26:09.386Z,101107.75
2022-09-17T03:26:40.862Z,101108.56
2022-09-17T03:27:12.716Z,101104.47
2022-09-17T03:27:44.345Z,101106.09
2022-09-17T03:28:16.748Z,101104.88
2022-09-17T03:28:48.288Z,101102.00
2022-09-17T03:29:19.775Z,101113.06
2022-09-17T03:29:51.280Z,101102.00
2022-09-17T03:30:22.786Z,101107.31
2022-09-17T03:30:54.438Z,101107.75
2022-09-17T03:31:26.200Z,101103.44
2022-09-17T03:31:57.807Z,101098.31
2022-09-17T03:32:29.373Z,101104.88
2022-09-17T03:33:01.068Z,101101.16
2022-09-17T03:33:33.334Z,101100.13
2022-09-17T03:34:05.103Z,101103.59
2022-09-17T03:34:36.627Z,101102.56
2022-09-17T03:35:08.395Z,101105.44
2022-09-17T03:35:43.362Z,101104.81
2022-09-17T03:36:14.843Z,101105.63
2022-09-17T03:36:46.370Z,101103.59
2022-09-17T03:37:17.869Z,101109.13
2022-09-17T03:37:49.347Z,101107.88
2022-09-17T03:38:20.896Z,101110.75
2022-09-17T03:38:56.462Z,101113.81
2022-09-17T03:39:53.037Z,101123.59
2022-09-17T03:40:24.796Z,101116.84
2022-09-17T03:40:58.205Z,101124.38
2022-09-17T03:41:29.778Z,101113.34
2022-09-17T03:42:01.280Z,101117.00
2022-09-17T03:42:32.771Z,101114.56
2022-09-17T03:43:04.702Z,101121.13
2022-09-17T03:43:36.302Z,101114.59
2022-09-17T03:44:07.943Z,101115.63
2022-09-17T03:44:42.438Z,101125.59
2022-09-17T03:45:16.787Z,101114.59
2022-09-17T03:45:49.202Z,101122.94
2022-09-17T03:46:21.103Z,101121.50
2022-09-17T03:46:52.957Z,101119.03
2022-09-17T03:47:24.576Z,101117.47
2022-09-17T03:47:56.889Z,101119.06
2022-09-17T03:48:29.641Z,101115.78
2022-09-17T03:49:01.217Z,101120.28
2022-09-17T03:49:33.019Z,101119.66
2022-09-17T03:50:05.659Z,101116.19
2022-09-17T03:50:37.139Z,101120.94
2022-09-17T03:51:08.801Z,101120.69
2022-09-17T03:51:40.301Z,101119.50
2022-09-17T03:52:11.796Z,101121.78
2022-09-17T03:52:43.970Z,101128.91
2022-09-17T03:53:16.492Z,101132.59
2022-09-17T03:53:48.284Z,101129.69
2022-09-17T03:54:19.908Z,101131.31
2022-09-17T03:54:51.404Z,101135.03
2022-09-17T03:55:22.923Z,101138.31
2022-09-17T03:55:57.464Z,101141.56
2022-09-17T03:56:29.234Z,101136.69
2022-09-17T03:57:00.771Z,101136.28
2022-09-17T03:57:32.322Z,101142.84
2022-09-17T03:58:04.204Z,101137.31
2022-09-17T03:58:36.093Z,101135.69
2022-09-17T03:59:07.589Z,101132.63
2022-09-17T03:59:39.856Z,101144.47
2022-09-17T04:00:12.822Z,101130.16
2022-09-17T04:00:45.645Z,101131.78
2022-09-17T04:01:17.311Z,101129.34
2022-09-17T04:01:48.981Z,101131.81
2022-09-17T04:02:20.848Z,101136.28
2022-09-17T04:02:52.510Z,101118.09
2022-09-17T04:03:25.573Z,101124.69
2022-09-17T04:03:57.155Z,101124.44
2022-09-17T04:04:28.773Z,101126.72
2022-09-17T04:05:00.454Z,101135.94
2022-09-17T04:05:32.027Z,101125.31
2022-09-17T04:06:03.622Z,101126.75
2022-09-17T04:06:35.205Z,101124.50
2022-09-17T04:07:06.725Z,101125.53
2022-09-17T04:07:40.896Z,101131.06
2022-09-17T04:08:12.660Z,101136.16
2022-09-17T04:08:44.475Z,101139.25
2022-09-17T04:09:16.192Z,101133.31
2022-09-17T04:09:47.679Z,101137.59
2022-09-17T04:10:19.395Z,101138.00
2022-09-17T04:10:51.951Z,101143.31
2022-09-17T04:11:23.777Z,101130.84
2022-09-17T04:11:55.283Z,101138.22
2022-09-17T04:12:26.779Z,101133.09
2022-09-17T04:12:58.356Z,101132.69
2022-09-17T04:13:29.854Z,101135.53
2022-09-17T04:14:01.500Z,101143.31
2022-09-17T04:14:33.028Z,101137.19
2022-09-17T04:15:04.930Z,101140.25
2022-09-17T04:15:36.407Z,101135.53
2022-09-17T04:16:07.992Z,101138.00
2022-09-17T04:16:39.547Z,101131.84
2022-09-17T04:17:12.080Z,101139.38
2022-09-17T04:17:43.877Z,101134.69
2022-09-17T04:18:15.659Z,101139.81
2022-09-17T04:18:47.359Z,101138.75
2022-09-17T04:19:18.960Z,101139.78
2022-09-17T04:19:50.457Z,101143.66
2022-09-17T04:20:22.016Z,101145.31
2022-09-17T04:20:53.821Z,101143.66
2022-09-17T04:21:25.312Z,101145.72
2022-09-17T04:21:56.820Z,101144.91
2022-09-17T04:22:28.281Z,101148.16
2022-09-17T04:22:59.772Z,101144.06
2022-09-17T04:23:31.533Z,101142.41
2022-09-17T04:24:03.134Z,101145.28
2022-09-17T04:24:34.690Z,101148.34
2022-09-17T04:25:06.745Z,101152.22
2022-09-17T04:25:38.610Z,101148.34
2022-09-17T04:26:10.697Z,101145.06
2022-09-17T04:26:42.509Z,101149.38
2022-09-17T04:27:14.071Z,101154.28
2022-09-17T04:27:45.992Z,101149.38
2022-09-17T04:28:17.637Z,101143.84
2022-09-17T04:28:49.163Z,101134.66
2022-09-17T04:29:20.670Z,101140.38
2022-09-17T04:29:52.164Z,101136.50
2022-09-17T04:30:23.649Z,101141.59
2022-09-17T04:30:55.260Z,101138.75
2022-09-17T04:31:27.421Z,101133.84
2022-09-17T04:31:58.928Z,101138.34
2022-09-17T04:32:31.033Z,101136.28
2022-09-17T04:33:02.853Z,101136.69
2022-09-17T04:33:34.534Z,101142.00
2022-09-17T04:34:06.183Z,101132.19
2022-09-17T04:34:37.811Z,101133.03
2022-09-17T04:35:09.508Z,101131.59
2022-09-17T04:35:41.100Z,101138.75
2022-09-17T04:36:12.601Z,101134.03
2022-09-17T04:36:44.096Z,101127.09
2022-09-17T04:37:16.175Z,101122.38
2022-09-17T04:37:59.525Z,101123.63
2022-09-17T04:38:31.025Z,101128.72
2022-09-17T04:39:02.567Z,101129.69
2022-09-17T04:39:34.119Z,101127.28
2022-09-17T04:40:08.130Z,101124.38
2022-09-17T04:40:41.624Z,101131.16
2022-09-17T04:41:13.178Z,101123.59
2022-09-17T04:41:44.694Z,101130.53
2022-09-17T04:42:16.211Z,101135.25
2022-09-17T04:42:47.912Z,101127.28
2022-09-17T04:43:19.492Z,101128.50
2022-09-17T04:43:51.903Z,101129.75
2022-09-17T04:44:23.463Z,101142.41
2022-09-17T04:44:54.965Z,101137.50
2022-09-17T04:45:26.496Z,101137.91
2022-09-17T04:45:57.972Z,101132.19
2022-09-17T04:46:29.590Z,101133.22
2022-09-17T04:47:01.227Z,101138.28
2022-09-17T04:47:32.733Z,101141.94
2022-09-17T04:48:04.719Z,101137.91
2022-09-17T04:48:37.479Z,101145.41
2022-09-17T04:49:08.938Z,101144.38
2022-09-17T04:49:40.577Z,101141.09
2022-09-17T04:50:12.152Z,101148.53
2022-09-17T04:50:44.161Z,101142.75
2022-09-17T04:51:15.661Z,101147.66
2022-09-17T04:51:47.257Z,101147.25
2022-09-17T04:52:18.774Z,101152.22
2022-09-17T04:52:50.281Z,101151.59
2022-09-17T04:53:21.792Z,101142.84
2022-09-17T04:53:53.262Z,101144.47
2022-09-17T04:54:24.844Z,101135.69
2022-09-17T04:54:56.328Z,101142.84
2022-09-17T04:55:27.960Z,101137.53
2022-09-17T04:55:59.582Z,101128.53
2022-09-17T04:56:31.122Z,101131.81
2022-09-17T04:57:02.784Z,101130.97
2022-09-17T04:57:34.288Z,101126.06
2022-09-17T04:58:05.878Z,101126.50
2022-09-17T04:58:37.447Z,101128.34
2022-09-17T04:59:09.132Z,101125.25
2022-09-17T04:59:40.684Z,101128.75
2022-09-17T05:00:13.118Z,101131.78
2022-09-17T05:00:44.841Z,101128.72
2022-09-17T05:01:18.770Z,101132.22
2022-09-17T05:01:50.510Z,101128.53
2022-09-17T05:02:22.313Z,101143.03
2022-09-17T05:02:55.368Z,101140.78
2022-09-17T05:03:26.966Z,101146.72
2022-09-17T05:03:58.596Z,101148.53
2022-09-17T05:04:30.102Z,101145.69
2022-09-17T05:05:01.619Z,101144.44
2022-09-17T05:05:33.175Z,101146.28
2022-09-17T05:06:05.085Z,101151.41
2022-09-17T05:06:36.624Z,101144.06
2022-09-17T05:07:11.978Z,101149.56
2022-09-17T05:08:50.647Z,101140.69
2022-09-17T05:09:22.155Z,101148.47
2022-09-17T05:09:53.904Z,101150.94
2022-09-17T05:10:26.332Z,101146.06
2022-09-17T05:10:57.881Z,101140.97
2022-09-17T05:12:00.332Z,101145.22
2022-09-17T05:12:34.457Z,101145.88
2022-09-17T05:13:06.420Z,101149.34
2022-09-17T05:13:38.296Z,101153.44
2022-09-17T05:14:09.791Z,101160.78
2022-09-17T05:14:41.323Z,101159.16
2022-09-17T05:15:12.843Z,101156.50
2022-09-17T05:15:45.145Z,101160.78
2022-09-17T05:16:16.840Z,101154.06
2022-09-17T05:16:48.622Z,101157.13
2022-09-17T05:17:20.097Z,101157.53
2022-09-17T05:17:51.983Z,101151.81
2022-09-17T05:18:24.016Z,101156.09
2022-09-17T05:18:55.713Z,101157.31
2022-09-17T05:19:27.304Z,101151.81
2022-09-17T05:19:58.820Z,101164.88
2022-09-17T05:20:31.006Z,101154.66
2022-09-17T05:21:02.513Z,101160.00
2022-09-17T05:21:34.042Z,101156.75
2022-09-17T05:22:05.544Z,101165.72
2022-09-17T05:22:41.815Z,101164.50
2022-09-17T05:23:13.420Z,101166.16
2022-09-17T05:23:44.926Z,101158.38
2022-09-17T05:24:16.436Z,101162.06
2022-09-17T05:24:48.006Z,101162.06
2022-09-17T05:25:24.718Z,101167.38
2022-09-17T05:26:02.676Z,101162.47
2022-09-17T05:26:34.291Z,101156.75
2022-09-17T05:27:06.896Z,101160.84
2022-09-17T05:27:39.020Z,101164.09
2022-09-17T05:28:10.584Z,101165.13
2022-09-17T05:28:42.645Z,101161.66
2022-09-17T05:29:14.182Z,101163.28
2022-09-17T05:29:45.758Z,101161.44
2022-09-17T05:30:17.333Z,101150.63
2022-09-17T05:30:48.835Z,101166.97
2022-09-17T05:31:20.590Z,101170.03
2022-09-17T05:31:52.503Z,101167.78
2022-09-17T05:32:24.060Z,101153.69
2022-09-17T05:33:03.808Z,101158.81
2022-09-17T05:33:35.315Z,101160.03
2022-09-17T05:34:06.819Z,101161.66
2022-09-17T05:34:38.477Z,101155.13
2022-09-17T05:35:10.668Z,101171.25
2022-09-17T05:35:44.624Z,101164.50
2022-09-17T05:36:16.156Z,101160.44
2022-09-17T05:36:47.802Z,101166.53
2022-09-17T05:37:19.308Z,101164.09
2022-09-17T05:37:50.863Z,101170.84
2022-09-17T05:38:22.596Z,101170.63
2022-09-17T05:38:54.088Z,101169.22
2022-09-17T05:39:25.610Z,101168.78
2022-09-17T05:39:57.364Z,101171.66
2022-09-17T05:40:29.750Z,101175.91
2022-09-17T05:41:05.352Z,101167.13
2022-09-17T05:41:36.887Z,101168.31
2022-09-17T05:42:08.393Z,101167.13
2022-09-17T05:42:40.057Z,101168.78
2022-09-17T05:43:12.218Z,101170.41
2022-09-17T05:43:44.141Z,101175.47
2022-09-17T05:44:18.088Z,101168.16
2022-09-17T05:44:49.962Z,101171.38
2022-09-17T05:45:21.806Z,101172.78
2022-09-17T05:45:54.571Z,101168.28
2022-09-17T05:46:26.191Z,101163.19
2022-09-17T05:46:57.752Z,101174.22
2022-09-17T05:47:29.902Z,101173.00
2022-09-17T05:48:02.396Z,101168.91
2022-09-17T05:48:34.016Z,101165.09
2022-09-17T05:49:05.619Z,101168.16
2022-09-17T05:49:37.196Z,101176.75
2022-09-17T05:50:09.205Z,101175.03
2022-09-17T05:50:41.461Z,101176.25
2022-09-17T05:51:12.984Z,101181.75
2022-09-17T05:51:44.551Z,101183.38
2022-09-17T05:52:16.298Z,101183.78
2022-09-17T05:52:47.828Z,101180.97
2022-09-17T05:53:19.407Z,101169.91
2022-09-17T05:53:50.916Z,101182.38
2022-09-17T05:54:22.508Z,101179.50
2022-09-17T05:54:54.011Z,101178.69
2022-09-17T05:55:25.516Z,101185.66
2022-09-17T05:55:58.094Z,101185.25
2022-09-17T05:56:29.703Z,101188.38
2022-09-17T05:57:01.796Z,101188.38
2022-09-17T05:57:33.281Z,101188.59
2022-09-17T05:58:15.966Z,101178.81
2022-09-17T05:58:47.627Z,101191.16
2022-09-17T05:59:19.203Z,101190.34
2022-09-17T05:59:50.733Z,101188.53
2022-09-17T06:00:22.290Z,101191.19
2022-09-17T06:00:54.015Z,101187.91
2022-09-17T06:01:25.821Z,101195.69
2022-09-17T06:01:57.513Z,101195.06
2022-09-17T06:02:29.108Z,101191.19
2022-09-17T06:03:00.704Z,101197.38
2022-09-17T06:03:32.290Z,101199.44
2022-09-17T06:04:04.781Z,101195.34
2022-09-17T06:04:36.301Z,101202.72
2022-09-17T06:05:08.252Z,101209.66
2022-09-17T06:05:40.451Z,101210.28
2022-09-17T06:06:11.971Z,101209.72
2022-09-17T06:06:43.816Z,101201.94
2022-09-17T06:07:15.349Z,101201.13
2022-09-17T06:07:46.876Z,101208.91
2022-09-17T06:08:18.394Z,101209.72
2022-09-17T06:08:49.883Z,101203.19
2022-09-17T06:09:21.380Z,101200.72
2022-09-17T06:09:52.915Z,101197.44
2022-09-17T06:10:24.403Z,101203.56
2022-09-17T06:11:00.208Z,101203.19
2022-09-17T06:11:33.687Z,101194.19
2022-09-17T06:12:05.715Z,101199.31
2022-09-17T06:12:37.420Z,101193.56
2022-09-17T06:13:09.028Z,101201.13
2022-09-17T06:13:40.626Z,101193.75
2022-09-17T06:14:12.224Z,101195.63
2022-09-17T06:14:43.733Z,101197.88
2022-09-17T06:15:15.263Z,101197.88
2022-09-17T06:15:51.189Z,101199.50
2022-09-17T06:16:24.465Z,101206.47
2022-09-17T06:16:56.464Z,101196.25
2022-09-17T06:17:28.501Z,101199.72
2022-09-17T06:18:00.059Z,101199.91
2022-09-17T06:18:31.702Z,101208.53
2022-09-17T06:19:04.285Z,101204.00
2022-09-17T06:19:35.905Z,101199.72
2022-09-17T06:20:07.829Z,101197.66
2022-09-17T06:20:39.359Z,101203.59
2022-09-17T06:21:10.868Z,101200.56
2022-09-17T06:21:42.385Z,101199.94
2022-09-17T06:22:13.860Z,101193.78
2022-09-17T06:22:45.471Z,101197.06
2022-09-17T06:23:17.263Z,101199.50
2022-09-17T06:23:52.043Z,101190.91
2022-09-17T06:24:23.578Z,101192.53
2022-09-17T06:24:55.132Z,101193.94
2022-09-17T06:25:26.681Z,101190.03
2022-09-17T06:25:59.512Z,101187.59
2022-09-17T06:26:31.249Z,101188.41
2022-09-17T06:27:02.847Z,101196.16
2022-09-17T06:27:35.061Z,101188.78
2022-09-17T06:28:06.548Z,101197.16
2022-09-17T06:28:41.483Z,101195.31
2022-09-17T06:29:15.222Z,101197.38
2022-09-17T06:29:46.781Z,101194.91
2022-09-17T06:30:18.500Z,101198.16
2022-09-17T06:30:52.689Z,101202.22
2022-09-17T06:31:24.290Z,101199.53
2022-09-17T06:32:02.786Z,101205.06
2022-09-17T06:32:34.466Z,101200.16
2022-09-17T06:33:05.973Z,101196.03
2022-09-17T06:33:37.795Z,101203.00
2022-09-17T06:34:09.309Z,101201.41
2022-09-17T06:34:41.164Z,101206.50
2022-09-17T06:35:12.660Z,101206.94
2022-09-17T06:35:44.200Z,101208.19
2022-09-17T06:36:15.704Z,101205.94
2022-09-17T06:36:48.902Z,101214.97
2022-09-17T06:37:20.436Z,101203.91
2022-09-17T06:37:51.960Z,101214.53
2022-09-17T06:38:23.459Z,101211.91
2022-09-17T06:38:55.056Z,101213.72
2022-09-17T06:39:26.549Z,101211.91
2022-09-17T06:39:59.494Z,101213.75